Time;durP1;ratioP1;P1;durP2;ratioP2;P2;SDS_P1;SDS_P2;PMS_P1;PMS_P2;Temp;Humidity;BMP_temperature;BMP_pressure;BME280_temperature;BME280_humidity;BME280_pressure;Samples;Min_cycle;Max_cycle;Signal;HPM_P1;HPM_P2
2023/07/12 00:01:21;;;;;;;8.70;5.38;;;18.50;99.90;;;;;;7376835;19;20010;-65
2023/07/12 00:03:48;;;;;;;7.10;5.45;;;18.50;99.90;;;;;;7373712;19;20514;-65
2023/07/12 00:06:38;;;;;;;7.72;4.88;;;18.40;99.90;;;;;;7372595;19;20018;-65
2023/07/12 00:09:06;;;;;;;7.20;4.88;;;18.40;99.90;;;;;;7376629;19;20018;-65
2023/07/12 00:11:32;;;;;;;7.63;5.68;;;18.40;99.90;;;;;;7376288;19;20019;-61
2023/07/12 00:13:58;;;;;;;11.65;6.18;;;18.40;99.90;;;;;;7365076;19;20044;-60
2023/07/12 00:16:35;;;;;;;7.88;5.53;;;18.40;99.90;;;;;;7371683;19;20030;-60
2023/07/12 00:19:02;;;;;;;9.45;5.35;;;18.40;99.90;;;;;;7373885;19;20030;-65
2023/07/12 00:21:30;;;;;;;8.68;5.55;;;18.30;99.90;;;;;;7372403;19;20046;-65
2023/07/12 00:23:59;;;;;;;7.38;5.38;;;18.40;99.90;;;;;;7376559;19;20477;-65
2023/07/12 00:26:30;;;;;;;5.97;4.80;;;18.40;99.90;;;;;;7373865;19;20019;-65
2023/07/12 00:28:58;;;;;;;;;;;18.40;99.90;;;;;;7375110;19;20028;-65
2023/07/12 00:31:29;;;;;;;6.68;4.93;;;18.40;99.90;;;;;;7364502;19;20258;-65
2023/07/12 00:34:00;;;;;;;10.05;6.40;;;18.40;99.90;;;;;;7376658;19;20521;-61
2023/07/12 00:36:30;;;;;;;9.43;5.78;;;18.40;99.90;;;;;;7367532;19;20019;-61
2023/07/12 00:38:58;;;;;;;8.13;5.78;;;18.40;99.90;;;;;;7360770;19;20334;-65
2023/07/12 00:41:49;;;;;;;9.68;5.85;;;18.40;99.90;;;;;;7360320;19;20382;-65
2023/07/12 00:44:36;;;;;;;10.23;6.43;;;18.40;99.90;;;;;;7372373;19;20035;-60
2023/07/12 00:47:03;;;;;;;10.88;6.00;;;18.40;99.90;;;;;;7227229;19;2850710;-60
2023/07/12 00:49:30;;;;;;;6.15;5.45;;;18.30;99.90;;;;;;7375680;19;20032;-60
2023/07/12 00:52:03;;;;;;;7.63;6.18;;;18.30;99.90;;;;;;7372714;19;20058;-60
2023/07/12 00:55:01;;;;;;;10.30;6.05;;;18.30;99.90;;;;;;7363024;19;20099;-61
2023/07/12 00:57:31;;;;;;;8.77;5.60;;;18.30;99.90;;;;;;7366939;19;20049;-60
2023/07/12 01:00:10;;;;;;;7.53;5.70;;;18.20;99.90;;;;;;7375713;19;20070;-60
2023/07/12 01:02:42;;;;;;;7.93;6.43;;;18.20;99.90;;;;;;7376356;19;20052;-65
2023/07/12 01:05:12;;;;;;;7.88;5.90;;;18.20;99.90;;;;;;7375046;19;20028;-65
2023/07/12 01:07:39;;;;;;;8.13;5.88;;;18.20;99.90;;;;;;7373675;19;20023;-65
2023/07/12 01:10:08;;;;;;;7.93;5.53;;;18.20;99.90;;;;;;7372711;19;20630;-65
2023/07/12 01:12:36;;;;;;;8.75;6.22;;;18.10;99.90;;;;;;7373880;19;20523;-65
2023/07/12 01:15:04;;;;;;;7.97;6.50;;;18.10;99.90;;;;;;7372649;19;20722;-64
2023/07/12 01:17:33;;;;;;;9.05;6.47;;;18.20;99.90;;;;;;7369649;19;20039;-60
2023/07/12 01:20:00;;;;;;;6.97;5.68;;;18.10;99.90;;;;;;7372846;19;20027;-60
2023/07/12 01:22:26;;;;;;;7.07;5.93;;;18.10;99.90;;;;;;7374911;19;20028;-65
2023/07/12 01:24:52;;;;;;;8.48;5.80;;;18.10;99.90;;;;;;7374774;19;20604;-60
2023/07/12 01:27:24;;;;;;;6.63;5.38;;;18.10;99.90;;;;;;7373225;19;20027;-60
2023/07/12 01:29:51;;;;;;;7.45;5.85;;;18.10;99.90;;;;;;7373743;19;20041;-60
2023/07/12 01:32:18;;;;;;;7.57;5.97;;;18.00;99.90;;;;;;7376344;19;20600;-60
2023/07/12 01:34:45;;;;;;;6.90;5.05;;;18.00;99.90;;;;;;7374953;19;20018;-60
2023/07/12 01:37:12;;;;;;;7.75;5.35;;;18.00;99.90;;;;;;7371845;19;20029;-60
2023/07/12 01:39:39;;;;;;;6.63;5.25;;;18.00;99.90;;;;;;7374816;19;20018;-65
2023/07/12 01:42:05;;;;;;;9.07;5.82;;;18.00;99.90;;;;;;7378126;19;20370;-60
2023/07/12 01:44:32;;;;;;;8.52;5.43;;;18.00;99.90;;;;;;7374955;19;20019;-60
2023/07/12 01:46:58;;;;;;;6.40;5.30;;;18.00;99.90;;;;;;7374857;19;20082;-65
2023/07/12 01:49:26;;;;;;;9.75;5.80;;;18.00;99.90;;;;;;7375684;19;20481;-66
2023/07/12 01:51:52;;;;;;;10.23;5.00;;;18.00;99.90;;;;;;7372498;19;20018;-65
2023/07/12 01:54:19;;;;;;;8.23;5.10;;;17.90;99.90;;;;;;7376016;19;20335;-66
2023/07/12 01:56:45;;;;;;;8.93;5.72;;;17.80;99.90;;;;;;7375245;19;20029;-65
2023/07/12 01:59:12;;;;;;;8.57;5.43;;;17.80;99.90;;;;;;7372843;19;20026;-66
2023/07/12 02:01:39;;;;;;;13.10;5.93;;;17.70;99.90;;;;;;7372507;19;20022;-66
2023/07/12 02:04:05;;;;;;;8.80;5.47;;;17.60;99.90;;;;;;7374705;19;20030;-65
2023/07/12 02:06:31;;;;;;;9.70;5.60;;;17.60;99.90;;;;;;7376963;19;20401;-65
2023/07/12 02:08:58;;;;;;;9.10;5.38;;;17.50;99.90;;;;;;7372349;19;20026;-65
2023/07/12 02:11:24;;;;;;;9.57;6.30;;;17.50;99.90;;;;;;7373319;19;20086;-65
2023/07/12 02:13:50;;;;;;;8.10;5.95;;;17.50;99.90;;;;;;7372288;19;20035;-65
2023/07/12 02:16:17;;;;;;;9.50;5.90;;;17.30;99.90;;;;;;7372118;19;20025;-60
2023/07/12 02:18:44;;;;;;;11.27;5.82;;;17.30;99.90;;;;;;7371609;19;20491;-61
2023/07/12 02:21:10;;;;;;;9.75;5.50;;;17.30;99.90;;;;;;7371260;19;20025;-60
2023/07/12 02:23:37;;;;;;;10.30;5.70;;;17.30;99.90;;;;;;7369758;19;20022;-60
2023/07/12 02:26:03;;;;;;;7.95;5.78;;;17.30;99.90;;;;;;7369602;19;20018;-60
2023/07/12 02:28:30;;;;;;;11.35;5.60;;;17.30;99.90;;;;;;7370095;19;20018;-60
2023/07/12 02:31:14;;;;;;;9.88;5.80;;;17.30;99.90;;;;;;7371797;19;20033;-61
2023/07/12 02:33:41;;;;;;;10.18;6.10;;;17.30;99.90;;;;;;7363929;19;20422;-60
2023/07/12 02:36:10;;;;;;;10.68;5.72;;;17.30;99.90;;;;;;7368350;19;20022;-61
2023/07/12 02:38:37;;;;;;;14.18;6.55;;;17.30;99.90;;;;;;7372448;19;20102;-61
2023/07/12 02:41:07;;;;;;;8.02;5.28;;;17.30;99.90;;;;;;7371680;19;20022;-61
2023/07/12 02:43:34;;;;;;;12.77;5.50;;;17.30;99.90;;;;;;7371329;19;20041;-61
2023/07/12 02:46:00;;;;;;;10.75;5.80;;;17.30;99.90;;;;;;7374603;19;20036;-65
2023/07/12 02:48:26;;;;;;;12.45;5.93;;;17.30;99.90;;;;;;7371397;19;20029;-65
2023/07/12 02:50:53;;;;;;;7.57;5.60;;;17.30;99.90;;;;;;7372279;19;20022;-66
2023/07/12 02:53:20;;;;;;;15.45;6.53;;;17.30;99.90;;;;;;7373173;19;20022;-66
2023/07/12 02:55:50;;;;;;;11.70;6.60;;;17.30;99.90;;;;;;7377359;19;20477;-66
2023/07/12 02:58:17;;;;;;;12.30;6.20;;;17.30;99.90;;;;;;7372508;19;20022;-66
2023/07/12 03:00:43;;;;;;;12.20;6.80;;;17.30;99.90;;;;;;7373594;19;20465;-65
2023/07/12 03:03:09;;;;;;;10.57;6.60;;;17.30;99.90;;;;;;7373518;19;20140;-65
2023/07/12 03:05:37;;;;;;;13.07;6.50;;;17.30;99.90;;;;;;7366785;19;20029;-61
2023/07/12 03:08:03;;;;;;;10.27;6.60;;;17.20;99.90;;;;;;7366113;19;20018;-65
2023/07/12 03:10:31;;;;;;;11.68;7.35;;;17.20;99.90;;;;;;7371126;19;20022;-65
2023/07/12 03:12:57;;;;;;;14.52;7.57;;;17.20;99.90;;;;;;7366856;19;20025;-65
2023/07/12 03:15:24;;;;;;;10.43;7.93;;;17.30;99.90;;;;;;7372074;19;20045;-65
2023/07/12 03:17:50;;;;;;;10.68;7.80;;;17.30;99.90;;;;;;7371214;19;20038;-66
2023/07/12 03:20:17;;;;;;;12.15;8.93;;;17.20;99.90;;;;;;7370275;19;20637;-65
2023/07/12 03:22:43;;;;;;;15.40;8.40;;;17.20;99.90;;;;;;7371309;19;20028;-65
2023/07/12 03:25:09;;;;;;;12.65;8.30;;;17.30;99.90;;;;;;7369563;19;20015;-66
2023/07/12 03:27:36;;;;;;;14.02;7.85;;;17.30;99.90;;;;;;7369255;19;20017;-60
2023/07/12 03:30:02;;;;;;;13.18;9.27;;;17.30;99.90;;;;;;7362309;19;20015;-61
2023/07/12 03:32:29;;;;;;;13.82;8.07;;;17.30;99.90;;;;;;7369200;19;20018;-61
2023/07/12 03:34:56;;;;;;;17.60;9.25;;;17.20;99.90;;;;;;7365723;19;20154;-60
2023/07/12 03:37:23;;;;;;;12.70;8.23;;;17.20;99.90;;;;;;7365209;19;20026;-60
2023/07/12 03:39:50;;;;;;;14.60;9.38;;;17.20;99.90;;;;;;7364666;19;20497;-60
2023/07/12 03:42:17;;;;;;;15.43;9.10;;;17.20;99.90;;;;;;7367550;19;21132;-60
2023/07/12 03:44:43;;;;;;;12.45;7.70;;;17.20;99.90;;;;;;7369716;19;20101;-60
2023/07/12 03:47:09;;;;;;;12.90;8.63;;;17.10;99.90;;;;;;7360929;19;20015;-60
2023/07/12 03:49:35;;;;;;;15.65;8.10;;;17.00;99.90;;;;;;7362473;19;20025;-61
2023/07/12 03:52:02;;;;;;;16.92;8.88;;;17.00;99.90;;;;;;7366586;19;20539;-61
2023/07/12 03:54:31;;;;;;;16.98;8.52;;;17.00;99.90;;;;;;7370638;19;20363;-61
2023/07/12 03:56:58;;;;;;;13.52;7.70;;;16.90;99.90;;;;;;7365978;19;20610;-65
2023/07/12 03:59:24;;;;;;;17.13;7.15;;;16.90;99.90;;;;;;7369311;19;20022;-66
2023/07/12 04:01:50;;;;;;;11.82;6.75;;;16.80;99.90;;;;;;7366678;19;20018;-66
2023/07/12 04:04:16;;;;;;;12.65;7.20;;;16.80;99.90;;;;;;7370419;19;20019;-66
2023/07/12 04:06:43;;;;;;;10.93;7.72;;;16.80;99.90;;;;;;7373967;19;20466;-66
2023/07/12 04:09:09;;;;;;;12.38;7.53;;;16.80;99.90;;;;;;7366634;19;20094;-66
2023/07/12 04:11:37;;;;;;;11.52;6.65;;;16.70;99.90;;;;;;7368057;19;20466;-66
2023/07/12 04:14:03;;;;;;;15.50;7.57;;;16.70;99.90;;;;;;7371259;19;20015;-65
2023/07/12 04:16:30;;;;;;;17.63;8.40;;;16.70;99.90;;;;;;7369984;19;20018;-66
2023/07/12 04:18:57;;;;;;;19.65;7.90;;;16.70;99.90;;;;;;7372428;19;20018;-65
2023/07/12 04:21:24;;;;;;;16.60;8.40;;;16.70;99.90;;;;;;7372909;19;20010;-61
2023/07/12 04:23:51;;;;;;;13.85;8.05;;;16.80;99.90;;;;;;7373923;19;20018;-59
2023/07/12 04:26:20;;;;;;;17.90;7.97;;;16.80;99.90;;;;;;7369513;19;20041;-59
2023/07/12 04:28:51;;;;;;;15.18;8.32;;;16.80;99.90;;;;;;7373003;19;20029;-59
2023/07/12 04:31:20;;;;;;;13.13;7.93;;;16.80;99.90;;;;;;7371576;19;20026;-59
2023/07/12 04:33:46;;;;;;;15.52;8.48;;;16.80;99.90;;;;;;7371782;19;20374;-64
2023/07/12 04:36:16;;;;;;;17.17;8.00;;;16.90;99.90;;;;;;7378513;19;20015;-65
2023/07/12 04:38:43;;;;;;;14.93;8.15;;;16.90;99.90;;;;;;7370460;19;20823;-65
2023/07/12 04:41:10;;;;;;;16.15;7.63;;;16.90;99.90;;;;;;7371890;19;20030;-60
2023/07/12 04:43:36;;;;;;;16.67;8.60;;;16.90;99.90;;;;;;7374154;19;20635;-60
2023/07/12 04:46:04;;;;;;;14.40;7.82;;;16.90;99.90;;;;;;7374654;19;20078;-60
2023/07/12 04:48:30;;;;;;;12.50;7.55;;;16.80;99.90;;;;;;7367541;19;20532;-60
2023/07/12 04:50:57;;;;;;;15.60;7.80;;;16.90;99.90;;;;;;7375297;19;20054;-60
2023/07/12 04:53:23;;;;;;;16.88;8.00;;;16.80;99.90;;;;;;7370514;19;20358;-61
2023/07/12 04:55:54;;;;;;;17.88;8.02;;;16.80;99.90;;;;;;7374776;19;20465;-61
2023/07/12 04:58:21;;;;;;;14.23;7.50;;;16.80;99.90;;;;;;7372367;19;20015;-61
2023/07/12 05:00:47;;;;;;;15.50;7.75;;;16.80;99.90;;;;;;7372899;19;20018;-61
2023/07/12 05:03:17;;;;;;;17.30;8.27;;;16.80;99.90;;;;;;7371136;19;20063;-61
2023/07/12 05:05:44;;;;;;;14.38;7.93;;;16.90;99.90;;;;;;7369003;19;20018;-66
2023/07/12 05:08:11;;;;;;;16.75;8.18;;;16.90;99.90;;;;;;7369534;19;20028;-61
2023/07/12 05:10:38;;;;;;;12.20;7.72;;;16.90;99.90;;;;;;7377497;19;20561;-66
2023/07/12 05:13:04;;;;;;;13.13;7.65;;;17.00;99.90;;;;;;7376233;19;20405;-67
2023/07/12 05:15:31;;;;;;;16.30;7.85;;;17.00;99.90;;;;;;7375141;19;20015;-67
2023/07/12 05:17:57;;;;;;;14.73;7.10;;;17.00;99.90;;;;;;7373745;19;20023;-66
2023/07/12 05:20:23;;;;;;;18.00;8.98;;;17.00;99.90;;;;;;7374046;19;20019;-72
2023/07/12 05:22:49;;;;;;;13.68;7.15;;;17.10;99.90;;;;;;7367371;19;20459;-72
2023/07/12 05:25:16;;;;;;;17.92;8.30;;;17.20;99.90;;;;;;7373884;19;20038;-68
2023/07/12 05:27:42;;;;;;;15.23;7.03;;;17.30;99.90;;;;;;7373167;19;20667;-68
2023/07/12 05:30:10;;;;;;;14.68;7.38;;;17.40;99.90;;;;;;7364748;19;20796;-73
2023/07/12 05:32:37;;;;;;;12.63;8.05;;;17.50;99.90;;;;;;7371825;19;20022;-73
2023/07/12 05:35:03;;;;;;;14.32;7.63;;;17.50;99.90;;;;;;7365596;19;20011;-73
2023/07/12 05:37:31;;;;;;;13.57;8.13;;;17.40;99.90;;;;;;7370245;19;20021;-72
2023/07/12 05:39:57;;;;;;;12.65;7.90;;;17.30;99.90;;;;;;7367850;19;20101;-73
2023/07/12 05:42:23;;;;;;;13.45;8.48;;;17.30;99.90;;;;;;7371431;19;20444;-72
2023/07/12 05:44:50;;;;;;;22.08;10.05;;;17.30;99.90;;;;;;7367427;19;20018;-72
2023/07/12 05:47:16;;;;;;;15.23;9.55;;;17.40;99.90;;;;;;7368021;19;20017;-72
2023/07/12 05:49:42;;;;;;;15.90;8.63;;;17.40;99.90;;;;;;7371630;19;20022;-72
2023/07/12 05:52:08;;;;;;;17.13;8.75;;;17.50;99.90;;;;;;7369833;19;20037;-72
2023/07/12 05:54:35;;;;;;;17.08;8.43;;;17.60;99.90;;;;;;7367804;19;20039;-67
2023/07/12 05:57:01;;;;;;;14.13;7.72;;;17.70;99.90;;;;;;7369275;19;20018;-67
2023/07/12 05:59:28;;;;;;;13.85;8.00;;;17.70;99.90;;;;;;7369635;19;20022;-68
2023/07/12 06:01:58;;;;;;;14.50;7.70;;;17.80;99.90;;;;;;7366971;19;20019;-67
2023/07/12 06:04:24;;;;;;;15.85;8.10;;;17.90;99.90;;;;;;7366793;19;20018;-67
2023/07/12 06:06:50;;;;;;;18.88;9.13;;;17.80;99.90;;;;;;7370221;19;20014;-60
2023/07/12 06:09:17;;;;;;;16.42;7.43;;;17.80;99.90;;;;;;7372875;19;20023;-60
2023/07/12 06:11:43;;;;;;;15.77;8.38;;;17.70;99.90;;;;;;7373185;19;20022;-67
2023/07/12 06:14:10;;;;;;;14.95;7.90;;;17.70;99.90;;;;;;7367832;19;20031;-67
2023/07/12 06:16:36;;;;;;;17.88;8.57;;;17.70;99.90;;;;;;7373457;19;20006;-68
2023/07/12 06:19:03;;;;;;;13.18;8.00;;;17.70;99.90;;;;;;7371115;19;20802;-60
2023/07/12 06:21:32;;;;;;;18.88;10.35;;;17.60;99.90;;;;;;7372333;19;20377;-66
2023/07/12 06:23:59;;;;;;;17.98;8.40;;;17.70;99.90;;;;;;7371026;19;21431;-61
2023/07/12 06:26:26;;;;;;;19.80;10.70;;;17.80;99.90;;;;;;7366659;19;20098;-60
2023/07/12 06:28:53;;;;;;;18.27;10.60;;;17.90;99.90;;;;;;7368526;19;20035;-60
2023/07/12 06:31:19;;;;;;;15.60;9.82;;;17.80;99.90;;;;;;7362801;19;20517;-60
2023/07/12 06:33:45;;;;;;;16.20;10.25;;;17.80;99.90;;;;;;7367046;19;20389;-61
2023/07/12 06:36:12;;;;;;;18.02;10.15;;;17.80;99.90;;;;;;7369251;19;20019;-61
2023/07/12 06:38:39;;;;;;;17.38;10.95;;;17.80;99.90;;;;;;7365882;19;20019;-61
2023/07/12 06:41:05;;;;;;;15.27;11.23;;;17.80;99.90;;;;;;7364414;19;20018;-60
2023/07/12 06:43:31;;;;;;;18.20;9.85;;;17.90;99.90;;;;;;7373500;19;20015;-71
2023/07/12 06:45:57;;;;;;;19.20;10.35;;;18.20;99.90;;;;;;7376303;19;20026;-67
2023/07/12 06:48:24;;;;;;;18.75;11.05;;;18.30;99.90;;;;;;7355722;19;20019;-66
2023/07/12 06:50:50;;;;;;;17.40;10.02;;;18.50;99.90;;;;;;7374229;19;20018;-67
2023/07/12 06:53:16;;;;;;;17.33;11.23;;;18.40;99.90;;;;;;7375721;19;20027;-67
2023/07/12 06:55:44;;;;;;;18.35;9.90;;;18.40;99.90;;;;;;7374745;19;20033;-67
2023/07/12 06:58:10;;;;;;;12.95;9.25;;;18.40;99.90;;;;;;7365356;19;20019;-68
2023/07/12 07:00:44;;;;;;;16.52;9.25;;;18.40;99.90;;;;;;7369699;19;20489;-68
2023/07/12 07:03:12;;;;;;;18.40;8.75;;;18.60;99.90;;;;;;7369217;19;20021;-67
2023/07/12 07:05:44;;;;;;;13.68;8.25;;;18.60;99.90;;;;;;7372413;19;20018;-68
2023/07/12 07:08:15;;;;;;;18.25;7.57;;;18.90;99.90;;;;;;7369684;19;20014;-73
2023/07/12 07:10:43;;;;;;;21.05;16.42;;;19.10;99.90;;;;;;7373294;19;20028;-68
2023/07/12 07:13:10;;;;;;;15.15;9.25;;;19.30;99.90;;;;;;7372387;19;20023;-62
2023/07/12 07:15:37;;;;;;;16.17;7.40;;;19.40;99.90;;;;;;7376067;19;20092;-67
2023/07/12 07:18:03;;;;;;;11.20;6.25;;;19.50;99.90;;;;;;7370904;19;20742;-67
2023/07/12 07:20:30;;;;;;;10.73;5.78;;;19.50;99.90;;;;;;7372002;19;20019;-65
2023/07/12 07:22:56;;;;;;;14.20;7.18;;;19.40;99.90;;;;;;7371761;19;20030;-63
2023/07/12 07:25:24;;;;;;;12.48;6.88;;;19.20;99.90;;;;;;7369670;19;20366;-65
2023/07/12 07:27:55;;;;;;;12.20;6.00;;;19.40;99.90;;;;;;7370670;19;20493;-70
2023/07/12 07:30:21;;;;;;;14.68;6.93;;;19.40;99.90;;;;;;7365362;19;20022;-71
2023/07/12 07:32:47;;;;;;;14.20;5.90;;;19.40;99.90;;;;;;7366634;19;20053;-71
2023/07/12 07:35:14;;;;;;;16.55;6.72;;;19.50;99.90;;;;;;7363632;19;20074;-71
2023/07/12 07:37:42;;;;;;;12.80;5.57;;;19.70;99.90;;;;;;7367690;19;20023;-71
2023/07/12 07:40:13;;;;;;;11.80;5.80;;;19.80;99.90;;;;;;7367683;19;20018;-70
2023/07/12 07:42:39;;;;;;;12.63;5.68;;;19.80;99.90;;;;;;7369303;19;20022;-70
2023/07/12 07:45:06;;;;;;;12.65;6.13;;;20.10;99.90;;;;;;7369808;19;20418;-71
2023/07/12 07:47:34;;;;;;;10.05;5.40;;;20.40;99.90;;;;;;7371674;19;20037;-71
2023/07/12 07:50:00;;;;;;;9.82;5.22;;;20.70;99.90;;;;;;7368629;19;20354;-70
2023/07/12 07:52:27;;;;;;;11.23;5.55;;;21.00;99.90;;;;;;7360821;19;20022;-70
2023/07/12 07:54:54;;;;;;;11.75;4.80;;;21.00;99.90;;;;;;7366284;19;20473;-70
2023/07/12 07:57:22;;;;;;;12.15;5.10;;;21.10;99.90;;;;;;7366275;19;20034;-69
2023/07/12 07:59:48;;;;;;;13.52;4.35;;;21.20;99.90;;;;;;7371116;19;20051;-69
2023/07/12 08:02:15;;;;;;;10.93;4.70;;;21.00;99.90;;;;;;7373772;19;20105;-66
2023/07/12 08:04:41;;;;;;;12.80;4.35;;;21.40;99.90;;;;;;7361792;19;20023;-69
2023/07/12 08:07:08;;;;;;;14.57;5.30;;;21.50;99.90;;;;;;7374948;19;20037;-70
2023/07/12 08:09:35;;;;;;;11.55;4.95;;;21.50;99.90;;;;;;7366648;19;20040;-70
2023/07/12 08:12:07;;;;;;;12.77;4.65;;;21.40;99.90;;;;;;7372946;19;20006;-70
2023/07/12 08:14:33;;;;;;;13.07;4.07;;;21.60;99.90;;;;;;7369775;19;20532;-69
2023/07/12 08:17:00;;;;;;;10.35;4.25;;;21.60;99.90;;;;;;7372582;19;20018;-68
2023/07/12 08:19:26;;;;;;;9.90;3.80;;;21.70;99.90;;;;;;7373566;19;20019;-69
2023/07/12 08:21:52;;;;;;;10.63;4.75;;;21.80;99.90;;;;;;7376797;19;20077;-69
2023/07/12 08:24:19;;;;;;;12.05;3.67;;;22.10;99.90;;;;;;7369560;19;20899;-69
2023/07/12 08:26:45;;;;;;;11.85;4.40;;;22.20;99.90;;;;;;7369682;19;20018;-70
2023/07/12 08:29:11;;;;;;;10.95;3.92;;;22.50;99.90;;;;;;7366672;19;20489;-69
2023/07/12 08:31:38;;;;;;;10.40;4.07;;;22.10;99.90;;;;;;7373760;19;20030;-69
2023/07/12 08:34:04;;;;;;;13.48;3.80;;;21.60;99.90;;;;;;7369595;19;20574;-59
2023/07/12 08:36:31;;;;;;;9.57;4.57;;;21.50;99.90;;;;;;7373117;19;20015;-59
2023/07/12 08:39:00;;;;;;;12.25;4.57;;;21.40;99.90;;;;;;7367389;19;20086;-59
2023/07/12 08:41:29;;;;;;;10.80;4.70;;;21.30;99.90;;;;;;7373272;19;20835;-59
2023/07/12 08:43:56;;;;;;;10.25;4.60;;;21.30;99.90;;;;;;7373802;19;20030;-71
2023/07/12 08:46:25;;;;;;;17.65;4.68;;;21.50;99.90;;;;;;7373623;19;20018;-70
2023/07/12 08:49:02;;;;;;;13.57;4.82;;;21.60;99.90;;;;;;7371808;19;20474;-69
2023/07/12 08:51:31;;;;;;;11.05;4.45;;;21.70;99.90;;;;;;7374656;19;20620;-70
2023/07/12 08:53:58;;;;;;;14.05;6.32;;;21.70;99.90;;;;;;7374325;19;20382;-70
2023/07/12 08:56:26;;;;;;;14.98;5.15;;;21.00;99.90;;;;;;7375612;19;20022;-70
2023/07/12 08:58:54;;;;;;;10.45;5.82;;;20.30;99.90;;;;;;7376077;19;20081;-69
2023/07/12 09:01:42;;;;;;;18.02;7.20;;;19.80;99.90;;;;;;7376100;19;20761;-69
2023/07/12 09:04:23;;;;;;;13.50;7.53;;;18.70;99.90;;;;;;7371137;19;20074;-68
2023/07/12 09:06:55;;;;;;;14.80;6.57;;;18.30;99.90;;;;;;7375882;19;20022;-69
2023/07/12 09:09:22;;;;;;;14.02;7.43;;;18.10;99.90;;;;;;7377176;19;20417;-69
2023/07/12 09:11:49;;;;;;;13.82;8.50;;;18.10;99.90;;;;;;7374179;19;20078;-70
2023/07/12 09:14:21;;;;;;;15.80;10.23;;;18.10;99.90;;;;;;7376333;19;20312;-60
2023/07/12 09:16:50;;;;;;;16.75;9.15;;;18.30;99.90;;;;;;7374198;19;20018;-60
2023/07/12 09:19:20;;;;;;;17.48;9.55;;;18.40;99.90;;;;;;7369914;19;20580;-60
2023/07/12 09:21:55;;;;;;;13.50;9.30;;;18.60;99.90;;;;;;7373846;19;20423;-60
2023/07/12 09:24:24;;;;;;;16.35;8.70;;;18.90;99.90;;;;;;7374708;19;20493;-60
2023/07/12 09:26:52;;;;;;;16.70;7.45;;;19.30;99.90;;;;;;7374652;19;20022;-62
2023/07/12 09:29:24;;;;;;;13.73;7.65;;;19.60;99.90;;;;;;7376847;19;20027;-60
2023/07/12 09:31:56;;;;;;;13.45;7.85;;;19.40;99.90;;;;;;7374935;19;20031;-60
2023/07/12 09:34:34;;;;;;;11.23;7.57;;;19.60;99.90;;;;;;7369533;19;20447;-68
2023/07/12 09:37:00;;;;;;;13.65;8.40;;;20.00;99.90;;;;;;7370352;19;20500;-59
2023/07/12 09:39:27;;;;;;;13.07;7.38;;;20.90;99.90;;;;;;7372725;19;20029;-59
2023/07/12 09:41:57;;;;;;;12.32;5.57;;;21.20;99.90;;;;;;7362717;19;20119;-59
2023/07/12 09:44:23;;;;;;;11.98;5.47;;;21.40;99.90;;;;;;7373397;19;20398;-69
2023/07/12 09:47:05;;;;;;;10.15;4.45;;;21.20;99.90;;;;;;7366250;19;20025;-69
2023/07/12 09:50:00;;;;;;;12.05;4.47;;;20.90;99.90;;;;;;7370595;19;20026;-69
2023/07/12 09:52:36;;;;;;;11.68;4.93;;;20.90;99.90;;;;;;7365989;19;20387;-69
2023/07/12 09:55:11;;;;;;;10.68;3.45;;;20.80;99.90;;;;;;7371623;19;20126;-59
2023/07/12 09:57:43;;;;;;;12.55;3.83;;;20.40;99.90;;;;;;7372471;19;20019;-59
2023/07/12 10:00:37;;;;;;;9.30;2.97;;;20.10;99.90;;;;;;7369312;19;20015;-60
2023/07/12 10:03:19;;;;;;;11.90;4.07;;;20.10;99.90;;;;;;7372989;19;20039;-59
2023/07/12 10:06:11;;;;;;;9.10;4.60;;;20.60;99.90;;;;;;7371885;19;20047;-60
2023/07/12 10:09:04;;;;;;;10.00;4.93;;;21.50;99.90;;;;;;7370806;19;20842;-60
2023/07/12 10:11:46;;;;;;;10.57;4.72;;;22.20;99.90;;;;;;7365330;19;20408;-61
2023/07/12 10:14:16;;;;;;;11.18;5.07;;;22.70;99.90;;;;;;7368818;19;20021;-60
2023/07/12 10:16:48;;;;;;;8.95;3.08;;;22.50;99.90;;;;;;7370901;19;20448;-60
2023/07/12 10:19:37;;;;;;;8.23;3.08;;;22.30;99.90;;;;;;7370319;19;20382;-60
2023/07/12 10:22:14;;;;;;;9.27;2.90;;;21.90;99.90;;;;;;7371338;19;20026;-60
2023/07/12 10:24:45;;;;;;;11.65;3.22;;;21.70;99.90;;;;;;7368931;19;20026;-60
2023/07/12 10:27:23;;;;;;;8.38;3.50;;;21.30;99.90;;;;;;7367145;19;20098;-59
2023/07/12 10:30:08;;;;;;;11.55;3.70;;;20.90;99.90;;;;;;7367469;19;20801;-59
2023/07/12 10:32:49;;;;;;;10.68;4.05;;;20.60;99.90;;;;;;7370411;19;20055;-58
2023/07/12 10:35:49;;;;;;;8.13;3.40;;;21.40;99.90;;;;;;7368958;19;20023;-60
2023/07/12 10:38:23;;;;;;;8.80;2.78;;;22.20;99.90;;;;;;7360865;19;20014;-60
2023/07/12 10:41:34;;;;;;;7.10;2.22;;;22.80;99.90;;;;;;7369563;19;20015;-59
2023/07/12 10:44:16;;;;;;;6.82;2.20;;;23.30;99.90;;;;;;7360824;19;20413;-69
2023/07/12 10:46:46;;;;;;;7.10;1.92;;;23.20;99.90;;;;;;7368723;19;20014;-69
2023/07/12 10:49:36;;;;;;;7.80;2.38;;;23.70;99.90;;;;;;7366346;19;20398;-69
2023/07/12 10:52:18;;;;;;;5.85;1.95;;;23.70;99.90;;;;;;7367946;19;20023;-69
2023/07/12 10:55:04;;;;;;;5.88;2.35;;;23.70;99.90;;;;;;7367751;19;20050;-69
2023/07/12 10:57:44;;;;;;;5.68;1.98;;;23.70;99.90;;;;;;7370213;19;20007;-69
2023/07/12 11:00:15;;;;;;;4.85;1.95;;;23.60;99.90;;;;;;7367523;19;20022;-69
2023/07/12 11:02:57;;;;;;;4.93;1.67;;;23.40;99.90;;;;;;7370345;19;20022;-69
2023/07/12 11:05:45;;;;;;;6.72;2.63;;;23.10;99.90;;;;;;7364122;19;20018;-59
2023/07/12 11:08:30;;;;;;;6.65;2.50;;;22.90;99.90;;;;;;7369036;19;20387;-59
2023/07/12 11:11:25;;;;;;;5.55;1.83;;;23.10;99.90;;;;;;7370524;19;20018;-59
2023/07/12 11:13:59;;;;;;;5.47;2.30;;;23.40;99.90;;;;;;7359169;19;20025;-60
2023/07/12 11:16:26;;;;;;;5.80;2.00;;;22.90;99.90;;;;;;7369680;19;21001;-60
2023/07/12 11:18:57;;;;;;;5.75;2.45;;;22.70;99.90;;;;;;7364279;19;20930;-68
2023/07/12 11:21:51;;;;;;;5.75;1.88;;;22.30;99.90;;;;;;7364674;19;20822;-68
2023/07/12 11:24:25;;;;;;;7.20;1.95;;;22.20;99.90;;;;;;7361941;19;20050;-69
2023/07/12 11:26:58;;;;;;;6.85;2.25;;;22.20;99.90;;;;;;7365533;19;20090;-59
2023/07/12 11:29:24;;;;;;;4.47;2.17;;;22.10;99.90;;;;;;7373943;19;20599;-59
2023/07/12 11:32:12;;;;;;;4.50;2.10;;;21.90;99.90;;;;;;7378991;19;20010;-59
2023/07/12 11:34:40;;;;;;;4.47;2.25;;;21.80;99.90;;;;;;7373936;19;20022;-59
2023/07/12 11:37:17;;;;;;;7.75;3.30;;;21.60;99.90;;;;;;7375336;19;20023;-61
2023/07/12 11:39:46;;;;;;;6.25;2.70;;;21.70;99.90;;;;;;7372191;19;20977;-59
2023/07/12 11:42:25;;;;;;;7.80;2.70;;;21.80;99.90;;;;;;7376212;19;20623;-59
2023/07/12 11:45:09;;;;;;;5.88;2.00;;;22.40;99.90;;;;;;7378703;19;20175;-59
2023/07/12 11:47:43;;;;;;;7.13;2.05;;;23.20;99.90;;;;;;7369274;19;20415;-60
2023/07/12 11:50:22;;;;;;;5.07;1.40;;;23.80;99.90;;;;;;7371848;19;20022;-60
2023/07/12 11:52:50;;;;;;;7.10;1.95;;;24.50;99.90;;;;;;7374361;19;20018;-69
2023/07/12 11:55:19;;;;;;;4.82;1.30;;;24.90;99.90;;;;;;7373079;19;20027;-69
2023/07/12 11:57:48;;;;;;;4.50;2.05;;;25.20;99.90;;;;;;7373540;19;20106;-69
2023/07/12 12:00:24;;;;;;;4.97;1.85;;;25.40;99.90;;;;;;7372110;19;20043;-69
2023/07/12 12:02:53;;;;;;;3.75;1.40;;;26.00;99.90;;;;;;7382163;19;20457;-69
2023/07/12 12:05:26;;;;;;;5.75;1.55;;;25.60;99.90;;;;;;7378040;19;20471;-70
2023/07/12 12:07:54;;;;;;;5.13;1.65;;;25.30;99.90;;;;;;7380894;19;20397;-69
2023/07/12 12:10:23;;;;;;;3.88;1.50;;;25.10;99.90;;;;;;7376440;19;20699;-67
2023/07/12 12:12:50;;;;;;;5.50;1.73;;;24.60;99.90;;;;;;7372293;19;20470;-65
2023/07/12 12:15:25;;;;;;;6.57;2.03;;;24.50;99.90;;;;;;7373901;19;20014;-68
2023/07/12 12:17:54;;;;;;;5.50;3.40;;;24.60;99.90;;;;;;7373282;19;20373;-68
2023/07/12 12:20:22;;;;;;;5.60;1.73;;;24.90;99.90;;;;;;7380562;19;20497;-64
2023/07/12 12:23:12;;;;;;;5.70;1.75;;;25.40;99.90;;;;;;7383421;19;20022;-68
2023/07/12 12:25:49;;;;;;;4.30;1.58;;;24.70;99.90;;;;;;7377183;19;20014;-68
2023/07/12 12:28:31;;;;;;;6.82;1.58;;;25.00;99.90;;;;;;7375219;19;20544;-68
2023/07/12 12:31:16;;;;;;;5.93;1.73;;;24.80;99.90;;;;;;7374511;19;20543;-68
2023/07/12 12:33:48;;;;;;;3.85;1.58;;;24.50;99.90;;;;;;7377973;19;20568;-68
2023/07/12 12:36:24;;;;;;;5.88;1.30;;;24.60;99.90;;;;;;7375638;19;20498;-68
2023/07/12 12:39:03;;;;;;;4.20;1.15;;;24.90;99.90;;;;;;7375089;19;20497;-69
2023/07/12 12:41:38;;;;;;;5.07;1.35;;;24.90;99.90;;;;;;7376593;19;20481;-69
2023/07/12 12:44:13;;;;;;;4.47;1.35;;;25.20;99.90;;;;;;7377623;19;20525;-69
2023/07/12 12:46:40;;;;;;;6.78;4.53;;;25.30;99.90;;;;;;7377030;19;20419;-70
2023/07/12 12:49:28;;;;;;;2.45;1.20;;;25.80;99.90;;;;;;7374560;19;20031;-69
2023/07/12 12:51:58;;;;;;;4.53;1.23;;;25.50;99.40;;;;;;7374195;19;20037;-60
2023/07/12 12:54:27;;;;;;;4.95;1.40;;;25.20;99.90;;;;;;7379409;19;20034;-61
2023/07/12 12:56:53;;;;;;;6.00;1.38;;;25.00;99.90;;;;;;7378045;19;20023;-60